sensor_id;sensor_type;location;lat;lon;timestamp;pressure;altitude;pressure_sealevel;temperature;humidity
70314;BME280;57725;47.526;18.986;2022-08-20T00:00:29;99240.75;;;25.41;63.90
70314;BME280;57725;47.526;18.986;2022-08-20T00:03:04;99241.13;;;25.38;63.82
70314;BME280;57725;47.526;18.986;2022-08-20T00:05:38;99243.97;;;25.36;63.69
70314;BME280;57725;47.526;18.986;2022-08-20T00:08:05;99248.50;;;25.36;64.07
70314;BME280;57725;47.526;18.986;2022-08-20T00:10:38;99246.16;;;25.33;63.80
70314;BME280;57725;47.526;18.986;2022-08-20T00:13:07;99253.34;;;25.32;64.22
70314;BME280;57725;47.526;18.986;2022-08-20T00:15:38;99263.38;;;25.30;63.92
70314;BME280;57725;47.526;18.986;2022-08-20T00:18:07;99254.69;;;25.28;64.01
70314;BME280;57725;47.526;18.986;2022-08-20T00:20:38;99268.91;;;25.29;64.01
70314;BME280;57725;47.526;18.986;2022-08-20T00:23:04;99262.09;;;25.26;63.90
70314;BME280;57725;47.526;18.986;2022-08-20T00:25:30;99274.63;;;25.25;64.27
70314;BME280;57725;47.526;18.986;2022-08-20T00:27:57;99274.78;;;25.24;64.28
70314;BME280;57725;47.526;18.986;2022-08-20T00:30:23;99279.97;;;25.25;64.44
70314;BME280;57725;47.526;18.986;2022-08-20T00:32:58;99274.97;;;25.22;64.29
70314;BME280;57725;47.526;18.986;2022-08-20T00:35:27;99281.97;;;25.23;64.07
70314;BME280;57725;47.526;18.986;2022-08-20T00:37:56;99276.81;;;25.22;64.47
70314;BME280;57725;47.526;18.986;2022-08-20T00:40:28;99268.78;;;25.22;64.51
70314;BME280;57725;47.526;18.986;2022-08-20T00:42:56;99262.59;;;25.21;64.37
70314;BME280;57725;47.526;18.986;2022-08-20T00:45:26;99277.97;;;25.19;64.08
70314;BME280;57725;47.526;18.986;2022-08-20T00:47:52;99271.63;;;25.20;64.32
70314;BME280;57725;47.526;18.986;2022-08-20T00:50:26;99271.78;;;25.19;64.22
70314;BME280;57725;47.526;18.986;2022-08-20T00:52:53;99268.28;;;25.18;64.50
70314;BME280;57725;47.526;18.986;2022-08-20T00:55:22;99264.78;;;25.18;64.43
70314;BME280;57725;47.526;18.986;2022-08-20T00:57:54;99269.28;;;25.17;64.54
70314;BME280;57725;47.526;18.986;2022-08-20T01:00:43;99257.94;;;25.15;64.58
70314;BME280;57725;47.526;18.986;2022-08-20T01:03:12;99254.44;;;25.15;64.05
70314;BME280;57725;47.526;18.986;2022-08-20T01:05:43;99242.91;;;25.14;64.28
70314;BME280;57725;47.526;18.986;2022-08-20T01:08:10;99234.88;;;25.14;64.25
70314;BME280;57725;47.526;18.986;2022-08-20T01:10:39;99223.34;;;25.14;64.42
70314;BME280;57725;47.526;18.986;2022-08-20T01:13:09;99210.31;;;25.11;64.24
70314;BME280;57725;47.526;18.986;2022-08-20T01:15:41;99204.13;;;25.10;64.34
70314;BME280;57725;47.526;18.986;2022-08-20T01:18:11;99197.97;;;25.10;64.39
70314;BME280;57725;47.526;18.986;2022-08-20T01:20:54;99192.78;;;25.08;64.25
70314;BME280;57725;47.526;18.986;2022-08-20T01:23:42;99191.78;;;25.09;64.22
70314;BME280;57725;47.526;18.986;2022-08-20T01:26:29;99188.44;;;25.07;64.30
70314;BME280;57725;47.526;18.986;2022-08-20T01:29:13;99184.09;;;25.06;64.47
70314;BME280;57725;47.526;18.986;2022-08-20T01:31:42;99181.41;;;25.06;64.35
70314;BME280;57725;47.526;18.986;2022-08-20T01:34:12;99163.69;;;25.05;64.16
70314;BME280;57725;47.526;18.986;2022-08-20T01:39:08;99174.41;;;25.05;64.39
70314;BME280;57725;47.526;18.986;2022-08-20T01:44:28;99178.28;;;25.03;64.22
70314;BME280;57725;47.526;18.986;2022-08-20T01:46:54;99180.94;;;25.03;64.45
70314;BME280;57725;47.526;18.986;2022-08-20T01:49:31;99170.44;;;25.01;64.42
70314;BME280;57725;47.526;18.986;2022-08-20T01:52:04;99166.91;;;25.01;64.71
70314;BME280;57725;47.526;18.986;2022-08-20T01:54:35;99171.59;;;24.99;64.50
70314;BME280;57725;47.526;18.986;2022-08-20T01:57:05;99178.78;;;24.98;64.84
70314;BME280;57725;47.526;18.986;2022-08-20T01:59:37;99164.75;;;24.96;64.74
70314;BME280;57725;47.526;18.986;2022-08-20T02:02:05;99167.44;;;24.96;64.47
70314;BME280;57725;47.526;18.986;2022-08-20T02:04:31;99178.97;;;24.97;64.52
70314;BME280;57725;47.526;18.986;2022-08-20T02:06:58;99175.78;;;24.93;64.64
70314;BME280;57725;47.526;18.986;2022-08-20T02:09:34;99176.63;;;24.94;64.68
70314;BME280;57725;47.526;18.986;2022-08-20T02:12:00;99177.63;;;24.93;65.10
70314;BME280;57725;47.526;18.986;2022-08-20T02:14:30;99194.69;;;24.92;64.75
70314;BME280;57725;47.526;18.986;2022-08-20T02:16:56;99175.97;;;24.92;64.80
70314;BME280;57725;47.526;18.986;2022-08-20T02:21:56;99176.97;;;24.90;64.92
70314;BME280;57725;47.526;18.986;2022-08-20T02:24:24;99178.13;;;24.88;64.85
70314;BME280;57725;47.526;18.986;2022-08-20T02:26:51;99181.81;;;24.87;65.04
70314;BME280;57725;47.526;18.986;2022-08-20T02:29:16;99203.19;;;24.87;64.97
70314;BME280;57725;47.526;18.986;2022-08-20T02:31:43;99200.53;;;24.87;65.00
70314;BME280;57725;47.526;18.986;2022-08-20T02:34:11;99197.84;;;24.87;64.93
70314;BME280;57725;47.526;18.986;2022-08-20T02:36:41;99197.84;;;24.87;64.86
70314;BME280;57725;47.526;18.986;2022-08-20T02:39:19;99197.84;;;24.87;65.08
70314;BME280;57725;47.526;18.986;2022-08-20T02:41:44;99200.53;;;24.87;64.95
70314;BME280;57725;47.526;18.986;2022-08-20T02:44:14;99202.53;;;24.85;64.99
70314;BME280;57725;47.526;18.986;2022-08-20T02:46:41;99202.69;;;24.83;64.93
70314;BME280;57725;47.526;18.986;2022-08-20T02:49:07;99212.56;;;24.83;64.94
70314;BME280;57725;47.526;18.986;2022-08-20T02:51:34;99221.78;;;24.80;64.71
70314;BME280;57725;47.526;18.986;2022-08-20T02:54:01;99213.94;;;24.79;65.37
70314;BME280;57725;47.526;18.986;2022-08-20T02:56:31;99211.25;;;24.79;65.21
70314;BME280;57725;47.526;18.986;2022-08-20T02:58:56;99211.25;;;24.79;65.00
70314;BME280;57725;47.526;18.986;2022-08-20T03:01:24;99219.28;;;24.79;65.15
70314;BME280;57725;47.526;18.986;2022-08-20T03:03:49;99232.66;;;24.79;64.92
70314;BME280;57725;47.526;18.986;2022-08-20T03:06:15;99243.66;;;24.76;64.95
70314;BME280;57725;47.526;18.986;2022-08-20T03:08:45;99248.19;;;24.75;65.19
70314;BME280;57725;47.526;18.986;2022-08-20T03:11:13;99272.91;;;24.77;65.08
70314;BME280;57725;47.526;18.986;2022-08-20T03:13:38;99269.41;;;24.77;64.88
70314;BME280;57725;47.526;18.986;2022-08-20T03:16:06;99270.41;;;24.76;64.97
70314;BME280;57725;47.526;18.986;2022-08-20T03:18:38;99261.53;;;24.75;65.16
70314;BME280;57725;47.526;18.986;2022-08-20T03:21:05;99248.34;;;24.74;64.80
70314;BME280;57725;47.526;18.986;2022-08-20T03:23:34;99247.34;;;24.75;65.20
70314;BME280;57725;47.526;18.986;2022-08-20T03:26:01;99267.22;;;24.72;65.19
70314;BME280;57725;47.526;18.986;2022-08-20T03:28:27;99282.44;;;24.72;65.29
70314;BME280;57725;47.526;18.986;2022-08-20T03:30:53;99276.91;;;24.73;65.04
70314;BME280;57725;47.526;18.986;2022-08-20T03:33:24;99268.22;;;24.71;65.31
70314;BME280;57725;47.526;18.986;2022-08-20T03:35:49;99278.25;;;24.69;65.33
70314;BME280;57725;47.526;18.986;2022-08-20T03:38:20;99291.44;;;24.71;65.31
70314;BME280;57725;47.526;18.986;2022-08-20T03:40:49;99281.75;;;24.70;65.04
70314;BME280;57725;47.526;18.986;2022-08-20T03:43:15;99285.25;;;24.70;65.39
70314;BME280;57725;47.526;18.986;2022-08-20T03:45:42;99278.44;;;24.68;65.34
70314;BME280;57725;47.526;18.986;2022-08-20T03:48:14;99281.13;;;24.68;65.29
70314;BME280;57725;47.526;18.986;2022-08-20T03:50:41;99282.28;;;24.65;65.48
70314;BME280;57725;47.526;18.986;2022-08-20T03:53:12;99289.31;;;24.66;65.43
70314;BME280;57725;47.526;18.986;2022-08-20T03:55:38;99292.13;;;24.65;65.50
70314;BME280;57725;47.526;18.986;2022-08-20T03:58:06;99286.63;;;24.66;65.40
70314;BME280;57725;47.526;18.986;2022-08-20T04:00:36;99288.47;;;24.66;65.12
70314;BME280;57725;47.526;18.986;2022-08-20T04:03:05;99283.28;;;24.64;65.12
70314;BME280;57725;47.526;18.986;2022-08-20T04:05:35;99275.59;;;24.61;65.72
70314;BME280;57725;47.526;18.986;2022-08-20T04:08:27;99281.78;;;24.62;65.32
70314;BME280;57725;47.526;18.986;2022-08-20T04:10:51;99295.13;;;24.62;65.52
70314;BME280;57725;47.526;18.986;2022-08-20T04:13:18;99294.31;;;24.61;65.30
70314;BME280;57725;47.526;18.986;2022-08-20T04:15:45;99286.28;;;24.61;65.37
70314;BME280;57725;47.526;18.986;2022-08-20T04:18:13;99281.94;;;24.60;65.27
70314;BME280;57725;47.526;18.986;2022-08-20T04:20:42;99277.75;;;24.58;65.56
70314;BME280;57725;47.526;18.986;2022-08-20T04:23:10;99268.75;;;24.59;65.32
70314;BME280;57725;47.526;18.986;2022-08-20T04:25:37;99252.25;;;24.55;65.84
70314;BME280;57725;47.526;18.986;2022-08-20T04:28:11;99241.56;;;24.55;65.66
70314;BME280;57725;47.526;18.986;2022-08-20T04:30:36;99240.72;;;24.54;65.64
70314;BME280;57725;47.526;18.986;2022-08-20T04:33:02;99249.56;;;24.55;65.37
70314;BME280;57725;47.526;18.986;2022-08-20T04:35:28;99254.41;;;24.51;65.55
70314;BME280;57725;47.526;18.986;2022-08-20T04:38:03;99261.94;;;24.56;65.37
70314;BME280;57725;47.526;18.986;2022-08-20T04:40:30;99258.41;;;24.56;65.73
70314;BME280;57725;47.526;18.986;2022-08-20T04:43:14;99261.41;;;24.52;65.36
70314;BME280;57725;47.526;18.986;2022-08-20T04:45:44;99261.41;;;24.52;65.59
70314;BME280;57725;47.526;18.986;2022-08-20T04:48:11;99263.25;;;24.52;65.62
70314;BME280;57725;47.526;18.986;2022-08-20T04:50:38;99267.25;;;24.48;65.99
70314;BME280;57725;47.526;18.986;2022-08-20T04:53:08;99259.41;;;24.46;65.60
70314;BME280;57725;47.526;18.986;2022-08-20T04:55:35;99258.41;;;24.47;65.88
70314;BME280;57725;47.526;18.986;2022-08-20T04:58:05;99259.41;;;24.46;65.84
70314;BME280;57725;47.526;18.986;2022-08-20T05:00:31;99256.72;;;24.46;65.75
70314;BME280;57725;47.526;18.986;2022-08-20T05:02:56;99254.06;;;24.46;65.45
70314;BME280;57725;47.526;18.986;2022-08-20T05:05:27;99263.13;;;24.45;65.78
70314;BME280;57725;47.526;18.986;2022-08-20T05:07:55;99275.78;;;24.43;65.83
70314;BME280;57725;47.526;18.986;2022-08-20T05:10:22;99285.66;;;24.43;65.96
70314;BME280;57725;47.526;18.986;2022-08-20T05:12:50;99283.81;;;24.43;66.08
70314;BME280;57725;47.526;18.986;2022-08-20T05:15:16;99283.16;;;24.41;65.91
70314;BME280;57725;47.526;18.986;2022-08-20T05:17:42;99281.47;;;24.40;65.74
70314;BME280;57725;47.526;18.986;2022-08-20T05:20:13;99284.31;;;24.39;65.79
70314;BME280;57725;47.526;18.986;2022-08-20T05:22:40;99272.78;;;24.38;65.88
70314;BME280;57725;47.526;18.986;2022-08-20T05:25:08;99265.59;;;24.39;65.84
70314;BME280;57725;47.526;18.986;2022-08-20T05:27:35;99262.09;;;24.38;66.19
70314;BME280;57725;47.526;18.986;2022-08-20T05:30:06;99255.25;;;24.36;66.22
70314;BME280;57725;47.526;18.986;2022-08-20T05:32:32;99251.75;;;24.35;66.21
70314;BME280;57725;47.526;18.986;2022-08-20T05:34:59;99256.91;;;24.37;66.02
70314;BME280;57725;47.526;18.986;2022-08-20T05:37:27;99251.56;;;24.37;65.74
70314;BME280;57725;47.526;18.986;2022-08-20T05:39:56;99242.25;;;24.33;65.92
70314;BME280;57725;47.526;18.986;2022-08-20T05:42:24;99254.41;;;24.35;66.13
70314;BME280;57725;47.526;18.986;2022-08-20T05:44:53;99263.25;;;24.36;66.08
70314;BME280;57725;47.526;18.986;2022-08-20T05:47:19;99261.59;;;24.35;66.18
70314;BME280;57725;47.526;18.986;2022-08-20T05:49:46;99257.28;;;24.34;66.07
70314;BME280;57725;47.526;18.986;2022-08-20T05:52:14;99253.25;;;24.30;66.15
70314;BME280;57725;47.526;18.986;2022-08-20T05:54:40;99259.44;;;24.30;66.05
70314;BME280;57725;47.526;18.986;2022-08-20T05:57:05;99257.78;;;24.29;66.42
70314;BME280;57725;47.526;18.986;2022-08-20T05:59:31;99256.78;;;24.30;66.48
70314;BME280;57725;47.526;18.986;2022-08-20T06:01:58;99260.28;;;24.31;66.33
70314;BME280;57725;47.526;18.986;2022-08-20T06:04:24;99254.78;;;24.32;66.02
70314;BME280;57725;47.526;18.986;2022-08-20T06:06:56;99249.75;;;24.29;66.41
70314;BME280;57725;47.526;18.986;2022-08-20T06:09:25;99243.25;;;24.32;66.45
70314;BME280;57725;47.526;18.986;2022-08-20T06:11:50;99239.06;;;24.29;66.07
70314;BME280;57725;47.526;18.986;2022-08-20T06:14:19;99234.56;;;24.30;66.13
70314;BME280;57725;47.526;18.986;2022-08-20T06:16:45;99239.06;;;24.29;66.22
70314;BME280;57725;47.526;18.986;2022-08-20T06:19:13;99239.06;;;24.29;66.05
70314;BME280;57725;47.526;18.986;2022-08-20T06:21:41;99235.56;;;24.29;66.45
70314;BME280;57725;47.526;18.986;2022-08-20T06:24:07;99246.56;;;24.26;66.22
70314;BME280;57725;47.526;18.986;2022-08-20T06:26:33;99249.25;;;24.26;66.37
70314;BME280;57725;47.526;18.986;2022-08-20T06:29:03;99261.28;;;24.30;65.90
70314;BME280;57725;47.526;18.986;2022-08-20T06:31:28;99263.44;;;24.26;66.38
70314;BME280;57725;47.526;18.986;2022-08-20T06:33:54;99265.09;;;24.27;66.03
70314;BME280;57725;47.526;18.986;2022-08-20T06:36:23;99276.78;;;24.26;66.42
70314;BME280;57725;47.526;18.986;2022-08-20T06:38:49;99272.28;;;24.27;66.22
70314;BME280;57725;47.526;18.986;2022-08-20T06:41:14;99277.78;;;24.25;66.41
70314;BME280;57725;47.526;18.986;2022-08-20T06:43:44;99284.81;;;24.26;66.25
70314;BME280;57725;47.526;18.986;2022-08-20T06:46:10;99283.97;;;24.26;66.47
70314;BME280;57725;47.526;18.986;2022-08-20T06:48:38;99282.28;;;24.25;66.40
70314;BME280;57725;47.526;18.986;2022-08-20T06:51:04;99287.63;;;24.25;66.23
70314;BME280;57725;47.526;18.986;2022-08-20T06:53:33;99301.00;;;24.25;66.42
70314;BME280;57725;47.526;18.986;2022-08-20T06:55:58;99309.84;;;24.25;66.45
70314;BME280;57725;47.526;18.986;2022-08-20T06:58:26;99308.50;;;24.21;66.43
70314;BME280;57725;47.526;18.986;2022-08-20T07:00:56;99303.16;;;24.21;66.58
70314;BME280;57725;47.526;18.986;2022-08-20T07:03:22;99309.31;;;24.22;66.48
70314;BME280;57725;47.526;18.986;2022-08-20T07:05:47;99310.19;;;24.22;66.40
70314;BME280;57725;47.526;18.986;2022-08-20T07:08:15;99313.69;;;24.23;66.64
70314;BME280;57725;47.526;18.986;2022-08-20T07:10:46;99337.53;;;24.24;66.65
70314;BME280;57725;47.526;18.986;2022-08-20T07:13:12;99336.19;;;24.20;66.86
70314;BME280;57725;47.526;18.986;2022-08-20T07:15:39;99334.38;;;24.21;66.92
70314;BME280;57725;47.526;18.986;2022-08-20T07:18:12;99328.19;;;24.20;66.98
70314;BME280;57725;47.526;18.986;2022-08-20T07:20:39;99333.00;;;24.16;66.70
70314;BME280;57725;47.526;18.986;2022-08-20T07:23:05;99339.19;;;24.17;66.87
70314;BME280;57725;47.526;18.986;2022-08-20T07:25:31;99338.19;;;24.18;66.65
70314;BME280;57725;47.526;18.986;2022-08-20T07:28:07;99333.84;;;24.17;66.80
70314;BME280;57725;47.526;18.986;2022-08-20T07:30:33;99336.34;;;24.18;66.96
70314;BME280;57725;47.526;18.986;2022-08-20T07:33:18;99324.84;;;24.18;66.82
70314;BME280;57725;47.526;18.986;2022-08-20T07:35:43;99334.69;;;24.17;66.60
70314;BME280;57725;47.526;18.986;2022-08-20T07:38:18;99336.34;;;24.18;66.91
70314;BME280;57725;47.526;18.986;2022-08-20T07:40:52;99338.19;;;24.18;66.85
70314;BME280;57725;47.526;18.986;2022-08-20T07:43:20;99336.50;;;24.17;67.01
70314;BME280;57725;47.526;18.986;2022-08-20T07:45:49;99333.84;;;24.17;66.75
70314;BME280;57725;47.526;18.986;2022-08-20T07:48:15;99343.84;;;24.15;66.96
70314;BME280;57725;47.526;18.986;2022-08-20T07:50:41;99343.69;;;24.16;66.97
70314;BME280;57725;47.526;18.986;2022-08-20T07:53:09;99365.06;;;24.16;66.56
70314;BME280;57725;47.526;18.986;2022-08-20T07:55:36;99392.44;;;24.18;66.44
70314;BME280;57725;47.526;18.986;2022-08-20T07:58:07;99408.47;;;24.18;66.73
70314;BME280;57725;47.526;18.986;2022-08-20T08:00:33;99445.84;;;24.18;66.65
70314;BME280;57725;47.526;18.986;2022-08-20T08:02:59;99452.03;;;24.19;66.72
70314;BME280;57725;47.526;18.986;2022-08-20T08:05:28;99460.88;;;24.19;66.76
70314;BME280;57725;47.526;18.986;2022-08-20T08:07:54;99459.38;;;24.17;66.65
70314;BME280;57725;47.526;18.986;2022-08-20T08:10:23;99445.16;;;24.16;66.93
70314;BME280;57725;47.526;18.986;2022-08-20T08:12:51;99447.84;;;24.16;66.92
70314;BME280;57725;47.526;18.986;2022-08-20T08:15:22;99439.84;;;24.16;66.88
70314;BME280;57725;47.526;18.986;2022-08-20T08:17:50;99441.66;;;24.16;66.91
70314;BME280;57725;47.526;18.986;2022-08-20T08:20:19;99445.16;;;24.16;66.80
70314;BME280;57725;47.526;18.986;2022-08-20T08:22:46;99451.66;;;24.14;66.48
70314;BME280;57725;47.526;18.986;2022-08-20T08:25:13;99469.53;;;24.13;66.89
70314;BME280;57725;47.526;18.986;2022-08-20T08:27:41;99472.19;;;24.13;66.83
70314;BME280;57725;47.526;18.986;2022-08-20T08:30:11;99478.38;;;24.14;66.83
70314;BME280;57725;47.526;18.986;2022-08-20T08:32:40;99480.38;;;24.12;66.83
70314;BME280;57725;47.526;18.986;2022-08-20T08:35:27;99479.38;;;24.13;66.65
70314;BME280;57725;47.526;18.986;2022-08-20T08:37:56;99478.72;;;24.11;66.83
70314;BME280;57725;47.526;18.986;2022-08-20T08:40:27;99473.38;;;24.11;66.91
70314;BME280;57725;47.526;18.986;2022-08-20T08:42:56;99453.31;;;24.07;66.87
70314;BME280;57725;47.526;18.986;2022-08-20T08:45:37;99447.81;;;24.08;67.01
70314;BME280;57725;47.526;18.986;2022-08-20T08:48:15;99437.31;;;24.07;66.88
70314;BME280;57725;47.526;18.986;2022-08-20T08:50:45;99436.47;;;24.06;66.98
70314;BME280;57725;47.526;18.986;2022-08-20T08:53:21;99439.13;;;24.06;67.25
70314;BME280;57725;47.526;18.986;2022-08-20T08:55:48;99425.78;;;24.06;66.90
70314;BME280;57725;47.526;18.986;2022-08-20T08:58:14;99412.44;;;24.06;67.05
70314;BME280;57725;47.526;18.986;2022-08-20T09:00:42;99409.09;;;24.04;67.20
70314;BME280;57725;47.526;18.986;2022-08-20T09:03:18;99399.25;;;24.05;66.91
70314;BME280;57725;47.526;18.986;2022-08-20T09:05:51;99389.41;;;24.05;66.84
70314;BME280;57725;47.526;18.986;2022-08-20T09:08:43;99386.72;;;24.05;67.15
70314;BME280;57725;47.526;18.986;2022-08-20T09:11:09;99391.06;;;24.06;67.08
70314;BME280;57725;47.526;18.986;2022-08-20T09:13:37;99403.91;;;24.03;67.15
70314;BME280;57725;47.526;18.986;2022-08-20T09:16:11;99437.47;;;24.05;67.03
70314;BME280;57725;47.526;18.986;2022-08-20T09:18:39;99443.63;;;24.06;66.90
70314;BME280;57725;47.526;18.986;2022-08-20T09:21:07;99458.66;;;24.07;66.87
70314;BME280;57725;47.526;18.986;2022-08-20T09:23:33;99466.84;;;24.05;66.89
70314;BME280;57725;47.526;18.986;2022-08-20T09:25:59;99473.16;;;24.04;67.04
70314;BME280;57725;47.526;18.986;2022-08-20T09:28:27;99490.19;;;24.03;66.88
70314;BME280;57725;47.526;18.986;2022-08-20T09:30:59;99492.84;;;24.03;66.95
70314;BME280;57725;47.526;18.986;2022-08-20T09:33:30;99502.38;;;24.06;66.88
70314;BME280;57725;47.526;18.986;2022-08-20T09:35:55;99520.53;;;24.02;66.94
70314;BME280;57725;47.526;18.986;2022-08-20T09:38:21;99505.38;;;24.03;67.15
70314;BME280;57725;47.526;18.986;2022-08-20T09:40:49;99509.88;;;24.02;67.15
70314;BME280;57725;47.526;18.986;2022-08-20T09:43:16;99498.50;;;24.00;66.93
70314;BME280;57725;47.526;18.986;2022-08-20T09:45:46;99488.84;;;23.99;67.09
70314;BME280;57725;47.526;18.986;2022-08-20T09:48:12;99479.00;;;24.00;67.25
70314;BME280;57725;47.526;18.986;2022-08-20T09:50:43;99463.97;;;23.99;67.23
70314;BME280;57725;47.526;18.986;2022-08-20T09:53:12;99460.47;;;23.98;67.08
70314;BME280;57725;47.526;18.986;2022-08-20T09:55:45;99449.78;;;23.98;67.23
70314;BME280;57725;47.526;18.986;2022-08-20T10:00:47;99406.56;;;23.95;67.28
70314;BME280;57725;47.526;18.986;2022-08-20T10:03:15;99396.72;;;23.95;67.19
70314;BME280;57725;47.526;18.986;2022-08-20T10:05:41;99384.38;;;23.94;67.47
70314;BME280;57725;47.526;18.986;2022-08-20T10:08:08;99365.84;;;23.93;67.21
70314;BME280;57725;47.526;18.986;2022-08-20T10:10:34;99354.47;;;23.91;67.30
70314;BME280;57725;47.526;18.986;2022-08-20T10:13:00;99353.66;;;23.90;67.18
70314;BME280;57725;47.526;18.986;2022-08-20T10:15:29;99355.31;;;23.91;67.22
70314;BME280;57725;47.526;18.986;2022-08-20T10:17:54;99340.28;;;23.90;67.42
70314;BME280;57725;47.526;18.986;2022-08-20T10:20:21;99317.09;;;23.91;67.33
70314;BME280;57725;47.526;18.986;2022-08-20T10:22:50;99287.91;;;23.89;67.17
70314;BME280;57725;47.526;18.986;2022-08-20T10:25:17;99273.72;;;23.89;67.46
70314;BME280;57725;47.526;18.986;2022-08-20T10:27:45;99279.91;;;23.89;67.28
70314;BME280;57725;47.526;18.986;2022-08-20T10:30:11;99285.44;;;23.88;67.55
70314;BME280;57725;47.526;18.986;2022-08-20T10:32:39;99289.09;;;23.87;67.38
70314;BME280;57725;47.526;18.986;2022-08-20T10:35:04;99298.94;;;23.86;67.30
70314;BME280;57725;47.526;18.986;2022-08-20T10:37:30;99316.78;;;23.86;67.51
70314;BME280;57725;47.526;18.986;2022-08-20T10:39:58;99328.78;;;23.81;67.62
70314;BME280;57725;47.526;18.986;2022-08-20T10:42:26;99351.63;;;23.84;67.61
70314;BME280;57725;47.526;18.986;2022-08-20T10:44:54;99362.31;;;23.84;67.66
70314;BME280;57725;47.526;18.986;2022-08-20T10:47:29;99369.66;;;23.82;67.47
70314;BME280;57725;47.526;18.986;2022-08-20T10:49:58;99381.31;;;23.81;67.68
70314;BME280;57725;47.526;18.986;2022-08-20T10:52:29;99392.81;;;23.81;67.54
70314;BME280;57725;47.526;18.986;2022-08-20T10:54:55;99401.69;;;23.82;67.42
70314;BME280;57725;47.526;18.986;2022-08-20T10:57:27;99417.53;;;23.83;67.47
70314;BME280;57725;47.526;18.986;2022-08-20T10:59:55;99415.03;;;23.82;67.59
70314;BME280;57725;47.526;18.986;2022-08-20T11:02:24;99409.00;;;23.80;67.49
70314;BME280;57725;47.526;18.986;2022-08-20T11:04:53;99415.19;;;23.80;67.56
70314;BME280;57725;47.526;18.986;2022-08-20T11:07:31;99418.16;;;23.77;67.91
70314;BME280;57725;47.526;18.986;2022-08-20T11:09:57;99417.31;;;23.77;67.85
70314;BME280;57725;47.526;18.986;2022-08-20T11:12:28;99418.16;;;23.77;67.56
70314;BME280;57725;47.526;18.986;2022-08-20T11:15:02;99428.69;;;23.79;67.76
70314;BME280;57725;47.526;18.986;2022-08-20T11:17:31;99421.84;;;23.76;67.81
70314;BME280;57725;47.526;18.986;2022-08-20T11:19:58;99423.50;;;23.77;67.93
70314;BME280;57725;47.526;18.986;2022-08-20T11:22:24;99434.16;;;23.77;67.79
70314;BME280;57725;47.526;18.986;2022-08-20T11:24:50;99434.34;;;23.76;67.82
70314;BME280;57725;47.526;18.986;2022-08-20T11:27:37;99436.34;;;23.74;67.90
70314;BME280;57725;47.526;18.986;2022-08-20T11:30:07;99437.19;;;23.74;67.88
70314;BME280;57725;47.526;18.986;2022-08-20T11:32:37;99434.34;;;23.76;67.86
70314;BME280;57725;47.526;18.986;2022-08-20T11:35:05;99424.69;;;23.75;68.01
70314;BME280;57725;47.526;18.986;2022-08-20T11:37:33;99426.66;;;23.73;68.24
70314;BME280;57725;47.526;18.986;2022-08-20T11:39:59;99423.16;;;23.72;68.13
70314;BME280;57725;47.526;18.986;2022-08-20T11:42:40;99416.97;;;23.72;67.97
70314;BME280;57725;47.526;18.986;2022-08-20T11:45:06;99416.97;;;23.72;67.89
70314;BME280;57725;47.526;18.986;2022-08-20T11:47:34;99407.00;;;23.74;68.05
70314;BME280;57725;47.526;18.986;2022-08-20T11:50:11;99392.81;;;23.73;67.91
70314;BME280;57725;47.526;18.986;2022-08-20T11:52:39;99385.94;;;23.71;67.97
70314;BME280;57725;47.526;18.986;2022-08-20T11:55:07;99391.13;;;23.72;68.09
70314;BME280;57725;47.526;18.986;2022-08-20T11:57:35;99387.63;;;23.72;68.46
70314;BME280;57725;47.526;18.986;2022-08-20T12:00:07;99386.78;;;23.71;68.15
70314;BME280;57725;47.526;18.986;2022-08-20T12:02:40;99382.13;;;23.73;67.94
70314;BME280;57725;47.526;18.986;2022-08-20T12:05:07;99381.44;;;23.71;68.42
70314;BME280;57725;47.526;18.986;2022-08-20T12:07:32;99377.94;;;23.71;68.29
70314;BME280;57725;47.526;18.986;2022-08-20T12:09:58;99376.94;;;23.72;68.33
70314;BME280;57725;47.526;18.986;2022-08-20T12:12:23;99374.28;;;23.72;68.06
70314;BME280;57725;47.526;18.986;2022-08-20T12:14:53;99373.44;;;23.71;68.42
70314;BME280;57725;47.526;18.986;2022-08-20T12:17:26;99365.59;;;23.70;68.43
70314;BME280;57725;47.526;18.986;2022-08-20T12:20:01;99363.75;;;23.70;68.23
70314;BME280;57725;47.526;18.986;2022-08-20T12:22:29;99350.25;;;23.72;68.20
70314;BME280;57725;47.526;18.986;2022-08-20T12:24:55;99350.09;;;23.73;67.96
70314;BME280;57725;47.526;18.986;2022-08-20T12:27:26;99347.44;;;23.73;68.10
70314;BME280;57725;47.526;18.986;2022-08-20T12:29:59;99337.09;;;23.70;68.39
70314;BME280;57725;47.526;18.986;2022-08-20T12:32:26;99330.75;;;23.71;68.15
70314;BME280;57725;47.526;18.986;2022-08-20T12:34:55;99327.25;;;23.71;68.34
70314;BME280;57725;47.526;18.986;2022-08-20T12:37:23;99321.91;;;23.71;68.22
70314;BME280;57725;47.526;18.986;2022-08-20T12:39:53;99309.41;;;23.71;68.29
70314;BME280;57725;47.526;18.986;2022-08-20T12:42:22;99314.59;;;23.73;67.98
70314;BME280;57725;47.526;18.986;2022-08-20T12:44:48;99298.72;;;23.71;68.21
70314;BME280;57725;47.526;18.986;2022-08-20T12:49:46;99303.06;;;23.72;68.38
70314;BME280;57725;47.526;18.986;2022-08-20T12:52:14;99295.91;;;23.73;68.54
70314;BME280;57725;47.526;18.986;2022-08-20T12:54:42;99283.72;;;23.70;68.35
70314;BME280;57725;47.526;18.986;2022-08-20T12:57:15;99283.72;;;23.70;68.56
70314;BME280;57725;47.526;18.986;2022-08-20T12:59:43;99273.19;;;23.69;68.44
70314;BME280;57725;47.526;18.986;2022-08-20T13:02:11;99271.03;;;23.72;68.41
70314;BME280;57725;47.526;18.986;2022-08-20T13:04:38;99268.53;;;23.71;68.01
70314;BME280;57725;47.526;18.986;2022-08-20T13:07:04;99269.38;;;23.71;68.36
70314;BME280;57725;47.526;18.986;2022-08-20T13:09:32;99270.22;;;23.72;68.57
70314;BME280;57725;47.526;18.986;2022-08-20T13:11:59;99263.19;;;23.71;68.14